createdAt,value
2022-10-11T00:02:06.839Z,98880.84
2022-10-11T00:04:33.203Z,98886.84
2022-10-11T00:06:59.655Z,98896.13
2022-10-11T00:09:26.088Z,98885.69
2022-10-11T00:11:55.282Z,98893.22
2022-10-11T00:14:21.990Z,98881.50
2022-10-11T00:16:50.697Z,98892.72
2022-10-11T00:19:17.258Z,98900.00
2022-10-11T00:21:43.665Z,98898.31
2022-10-11T00:24:10.062Z,98900.31
2022-10-11T00:26:36.425Z,98900.78
2022-10-11T00:29:02.803Z,98907.31
2022-10-11T00:31:33.290Z,98912.97
2022-10-11T00:34:01.775Z,98911.66
2022-10-11T00:36:28.114Z,98916.31
2022-10-11T00:38:54.486Z,98916.00
2022-10-11T00:41:20.846Z,98923.97
2022-10-11T00:43:47.233Z,98919.91
2022-10-11T00:46:13.555Z,98921.72
2022-10-11T00:48:40.924Z,98918.66
2022-10-11T00:51:13.822Z,98926.44
2022-10-11T00:53:40.176Z,98919.09
2022-10-11T00:56:12.212Z,98913.75
2022-10-11T00:58:38.553Z,98921.03
2022-10-11T01:01:05.134Z,98927.44
2022-10-11T01:03:34.459Z,98926.13
2022-10-11T01:06:01.356Z,98926.25
2022-10-11T01:08:28.007Z,98926.03
2022-10-11T01:10:56.500Z,98919.59
2022-10-11T01:13:22.823Z,98926.06
2022-10-11T01:16:04.667Z,98929.94
2022-10-11T01:18:34.902Z,98927.19
2022-10-11T01:21:20.023Z,98924.59
2022-10-11T01:23:55.642Z,98932.41
2022-10-11T01:26:28.717Z,98928.69
2022-10-11T01:29:03.593Z,98927.19
2022-10-11T01:31:48.862Z,98937.47
2022-10-11T01:34:17.213Z,98940.88
2022-10-11T01:36:51.174Z,98939.38
2022-10-11T01:39:36.208Z,98939.47
2022-10-11T01:42:03.195Z,98945.53
2022-10-11T01:44:29.535Z,98950.06
2022-10-11T01:46:56.299Z,98948.63
2022-10-11T01:49:22.619Z,98954.09
2022-10-11T01:51:51.097Z,98941.94
2022-10-11T01:54:23.491Z,98946.03
2022-10-11T01:56:49.786Z,98953.66
2022-10-11T01:59:36.385Z,98953.69
2022-10-11T02:02:21.626Z,98945.38
2022-10-11T02:05:06.336Z,98956.31
2022-10-11T02:07:32.631Z,98949.44
2022-10-11T02:10:11.310Z,98960.00
2022-10-11T02:12:38.361Z,98960.75
2022-10-11T02:15:06.924Z,98961.94
2022-10-11T02:17:33.785Z,98961.38
2022-10-11T02:20:00.316Z,98967.25
2022-10-11T02:22:27.874Z,98959.38
2022-10-11T02:24:56.039Z,98969.63
2022-10-11T02:27:23.017Z,98956.25
2022-10-11T02:29:49.497Z,98966.09
2022-10-11T02:32:16.572Z,98958.75
2022-10-11T02:34:47.592Z,98961.03
2022-10-11T02:37:19.489Z,98953.56
2022-10-11T02:39:46.588Z,98957.56
2022-10-11T02:42:14.112Z,98956.19
2022-10-11T02:44:41.358Z,98954.63
2022-10-11T02:47:07.760Z,98966.84
2022-10-11T02:49:34.435Z,98964.19
2022-10-11T02:52:00.826Z,98967.38
2022-10-11T02:54:27.215Z,98967.50
2022-10-11T02:56:53.588Z,98970.94
2022-10-11T02:59:20.157Z,98967.69
2022-10-11T03:01:46.792Z,98976.38
2022-10-11T03:04:13.213Z,98982.78
2022-10-11T03:06:39.601Z,98983.72
2022-10-11T03:09:05.951Z,98989.69
2022-10-11T03:11:32.310Z,98993.13
2022-10-11T03:13:58.666Z,98993.44
2022-10-11T03:16:25.027Z,99002.69
2022-10-11T03:18:51.380Z,99003.19
2022-10-11T03:21:18.416Z,99004.72
2022-10-11T03:23:44.798Z,99003.47
2022-10-11T03:26:11.141Z,99013.47
2022-10-11T03:28:37.650Z,99008.16
2022-10-11T03:31:04.128Z,99019.59
2022-10-11T03:33:30.472Z,99011.25
2022-10-11T03:35:56.833Z,99018.03
2022-10-11T03:38:23.206Z,99016.31
2022-10-11T03:40:49.585Z,99021.78
2022-10-11T03:43:16.128Z,99021.28
2022-10-11T03:45:42.531Z,99032.50
2022-10-11T03:48:08.944Z,99027.28
2022-10-11T03:50:35.532Z,99029.81
2022-10-11T03:53:01.919Z,99028.31
2022-10-11T03:55:28.317Z,99039.59
2022-10-11T03:57:54.701Z,99041.09
2022-10-11T04:00:21.035Z,99039.91
2022-10-11T04:02:47.383Z,99059.09
2022-10-11T04:05:13.820Z,99055.72
2022-10-11T04:07:40.259Z,99054.94
2022-10-11T04:10:07.100Z,99060.34
2022-10-11T04:12:33.491Z,99052.78
2022-10-11T04:14:59.840Z,99058.22
2022-10-11T04:17:26.187Z,99062.09
2022-10-11T04:19:52.571Z,99068.44
2022-10-11T04:22:18.961Z,99073.75
2022-10-11T04:24:45.348Z,99062.66
2022-10-11T04:27:11.719Z,99066.19
2022-10-11T04:29:38.058Z,99077.28
2022-10-11T04:32:04.434Z,99075.13
2022-10-11T04:34:31.492Z,99077.44
2022-10-11T04:36:57.866Z,99076.00
2022-10-11T04:39:25.258Z,99077.22
2022-10-11T04:41:51.638Z,99084.41
2022-10-11T04:44:18.011Z,99086.75
2022-10-11T04:46:44.380Z,99085.84
2022-10-11T04:49:10.709Z,99088.22
2022-10-11T04:51:37.090Z,99089.75
2022-10-11T04:54:03.527Z,99085.53
2022-10-11T04:56:30.596Z,99085.97
2022-10-11T04:58:56.979Z,99092.81
2022-10-11T05:01:23.315Z,99093.00
2022-10-11T05:03:49.684Z,99096.28
2022-10-11T05:06:16.128Z,99096.50
2022-10-11T05:08:42.468Z,99105.69
2022-10-11T05:11:10.833Z,99105.91
2022-10-11T05:13:37.208Z,99110.16
2022-10-11T05:16:07.098Z,99104.44
2022-10-11T05:18:35.109Z,99098.31
2022-10-11T05:21:04.642Z,99105.06
2022-10-11T05:23:31.220Z,99101.19
2022-10-11T05:25:57.681Z,99101.50
2022-10-11T05:28:24.080Z,99116.06
2022-10-11T05:30:50.470Z,99109.72
2022-10-11T05:33:16.846Z,99118.50
2022-10-11T05:35:43.273Z,99114.13
2022-10-11T05:38:09.818Z,99112.47
2022-10-11T05:40:39.143Z,99117.91
2022-10-11T05:43:05.547Z,99119.03
2022-10-11T05:45:32.953Z,99128.31
2022-10-11T05:47:59.287Z,99121.69
2022-10-11T05:50:25.640Z,99126.81
2022-10-11T05:52:51.971Z,99121.41
2022-10-11T05:55:18.447Z,99129.03
2022-10-11T05:57:44.800Z,99132.22
2022-10-11T06:00:11.320Z,99128.09
2022-10-11T06:02:37.659Z,99138.31
2022-10-11T06:05:04.100Z,99140.31
2022-10-11T06:07:30.516Z,99139.91
2022-10-11T06:09:56.957Z,99136.31
2022-10-11T06:12:23.367Z,99141.03
2022-10-11T06:14:50.093Z,99141.94
2022-10-11T06:17:16.505Z,99145.06
2022-10-11T06:19:43.603Z,99140.25
2022-10-11T06:22:11.187Z,99143.38
2022-10-11T06:24:37.524Z,99146.34
2022-10-11T06:27:03.897Z,99140.38
2022-10-11T06:29:30.208Z,99142.22
2022-10-11T06:31:56.659Z,99152.81
2022-10-11T06:34:23.213Z,99151.56
2022-10-11T06:36:49.666Z,99156.97
2022-10-11T06:39:16.101Z,99161.06
2022-10-11T06:41:43.130Z,99152.47
2022-10-11T06:44:14.257Z,99163.22
2022-10-11T06:46:41.037Z,99164.56
2022-10-11T06:49:07.441Z,99167.81
2022-10-11T06:51:35.392Z,99170.81
2022-10-11T06:54:01.944Z,99168.56
2022-10-11T06:56:29.355Z,99176.09
2022-10-11T06:58:56.613Z,99172.22
2022-10-11T07:01:24.026Z,99177.56
2022-10-11T07:03:54.335Z,99175.50
2022-10-11T07:06:21.710Z,99181.09
2022-10-11T07:08:48.181Z,99180.75
2022-10-11T07:11:15.452Z,99175.84
2022-10-11T07:13:41.950Z,99182.50
2022-10-11T07:16:10.044Z,99189.22
2022-10-11T07:18:36.666Z,99193.84
2022-10-11T07:21:03.661Z,99188.56
2022-10-11T07:23:30.374Z,99195.97
2022-10-11T07:25:57.400Z,99202.22
2022-10-11T07:28:23.998Z,99192.97
2022-10-11T07:30:50.743Z,99196.59
2022-10-11T07:33:17.128Z,99204.81
2022-10-11T07:35:48.083Z,99209.53
2022-10-11T07:38:15.164Z,99208.75
2022-10-11T07:40:42.781Z,99206.28
2022-10-11T07:43:09.632Z,99207.75
2022-10-11T07:45:39.588Z,99208.09
2022-10-11T07:48:06.098Z,99210.41
2022-10-11T07:50:32.554Z,99203.22
2022-10-11T07:52:58.890Z,99204.72
2022-10-11T07:55:27.427Z,99212.03
2022-10-11T07:57:57.210Z,99206.81
2022-10-11T08:00:23.670Z,99206.34
2022-10-11T08:02:50.233Z,99213.03
2022-10-11T08:05:16.631Z,99215.59
2022-10-11T08:07:43.107Z,99219.53
2022-10-11T08:10:09.742Z,99216.09
2022-10-11T08:12:36.113Z,99223.44
2022-10-11T08:15:02.803Z,99230.47
2022-10-11T08:17:29.595Z,99226.34
2022-10-11T08:19:58.084Z,99232.59
2022-10-11T08:22:24.445Z,99231.44
2022-10-11T08:24:50.931Z,99244.16
2022-10-11T08:27:17.280Z,99235.69
2022-10-11T08:29:43.643Z,99240.75
2022-10-11T08:32:12.105Z,99231.75
2022-10-11T08:34:38.532Z,99241.91
2022-10-11T08:37:05.307Z,99237.47
2022-10-11T08:39:31.778Z,99238.13
2022-10-11T08:42:10.994Z,99242.81
2022-10-11T08:45:05.605Z,99238.69
2022-10-11T08:47:24.964Z,99240.66
2022-10-11T08:49:51.332Z,99238.19
2022-10-11T08:52:24.987Z,99240.22
2022-10-11T08:55:26.836Z,99233.81
2022-10-11T08:57:53.879Z,99238.13
2022-10-11T09:00:20.336Z,99242.50
2022-10-11T09:03:09.752Z,99241.63
2022-10-11T09:05:38.904Z,99242.59
2022-10-11T09:08:05.243Z,99250.84
2022-10-11T09:10:51.394Z,99250.34
2022-10-11T09:13:41.634Z,99255.81
2022-10-11T09:16:20.738Z,99251.38
2022-10-11T09:19:05.959Z,99249.66
2022-10-11T09:21:35.461Z,99255.53
2022-10-11T09:24:02.003Z,99258.59
2022-10-11T09:26:29.822Z,99258.78
2022-10-11T09:29:01.150Z,99263.72
2022-10-11T09:31:28.030Z,99264.47
2022-10-11T09:33:54.370Z,99260.84
2022-10-11T09:36:39.209Z,99253.81
2022-10-11T09:39:11.602Z,99255.44
2022-10-11T09:41:56.484Z,99253.81
2022-10-11T09:44:23.479Z,99255.13
2022-10-11T09:46:49.890Z,99255.44
2022-10-11T09:49:16.792Z,99260.00
2022-10-11T09:51:44.565Z,99260.75
2022-10-11T09:54:10.967Z,99260.00
2022-10-11T09:56:43.206Z,99258.34
2022-10-11T09:59:27.186Z,99262.53
2022-10-11T10:02:08.115Z,99265.34
2022-10-11T10:04:34.517Z,99259.69
2022-10-11T10:07:10.639Z,99255.00
2022-10-11T10:09:37.039Z,99262.84
2022-10-11T10:12:10.703Z,99263.06
2022-10-11T10:14:37.329Z,99274.09
2022-10-11T10:17:04.648Z,99265.88
2022-10-11T10:19:43.896Z,99272.78
2022-10-11T10:22:18.738Z,99273.75
2022-10-11T10:24:45.181Z,99265.47
2022-10-11T10:27:14.589Z,99264.91
2022-10-11T10:29:41.281Z,99267.50
2022-10-11T10:32:15.419Z,99266.91
2022-10-11T10:34:50.147Z,99268.63
2022-10-11T10:37:32.638Z,99270.13
2022-10-11T10:40:09.206Z,99272.81
2022-10-11T10:42:35.584Z,99276.72
2022-10-11T10:45:01.947Z,99271.44
2022-10-11T10:47:38.576Z,99277.97
2022-10-11T10:50:25.767Z,99279.75
2022-10-11T10:52:55.131Z,99270.75
2022-10-11T10:55:29.073Z,99273.94
2022-10-11T10:58:12.876Z,99276.41
2022-10-11T11:00:43.267Z,99273.84
2022-10-11T11:03:12.341Z,99263.28
2022-10-11T11:05:59.485Z,99270.56
2022-10-11T11:08:44.754Z,99277.91
2022-10-11T11:11:14.145Z,99274.47
2022-10-11T11:13:59.320Z,99283.03
2022-10-11T11:16:31.985Z,99279.69
2022-10-11T11:19:02.278Z,99276.78
2022-10-11T11:21:48.859Z,99273.63
2022-10-11T11:24:18.238Z,99284.22
2022-10-11T11:26:46.870Z,99281.19
2022-10-11T11:29:26.331Z,99278.09
2022-10-11T11:31:59.091Z,99279.00
2022-10-11T11:34:29.407Z,99278.59
2022-10-11T11:36:56.651Z,99283.97
2022-10-11T11:39:28.141Z,99280.81
2022-10-11T11:41:57.771Z,99289.13
2022-10-11T11:44:44.385Z,99278.81
2022-10-11T11:47:12.059Z,99283.13
2022-10-11T11:49:45.380Z,99282.00
2022-10-11T11:52:13.451Z,99277.19
2022-10-11T11:54:57.267Z,99277.72
2022-10-11T11:57:36.212Z,99273.59
2022-10-11T12:00:07.256Z,99275.97
2022-10-11T12:02:42.577Z,99273.81
2022-10-11T12:05:13.014Z,99271.03
2022-10-11T12:08:06.127Z,99266.69
2022-10-11T12:10:35.721Z,99264.03
2022-10-11T12:13:03.008Z,99266.50
2022-10-11T12:15:29.398Z,99267.28
2022-10-11T12:17:59.246Z,99262.31
2022-10-11T12:20:28.700Z,99263.88
2022-10-11T12:23:05.184Z,99268.59
2022-10-11T12:25:35.714Z,99264.31
2022-10-11T12:28:04.025Z,99265.34
2022-10-11T12:30:42.643Z,99266.03
2022-10-11T12:33:25.296Z,99262.31
2022-10-11T12:35:54.787Z,99259.50
2022-10-11T12:38:22.602Z,99256.25
2022-10-11T12:40:50.043Z,99252.16
2022-10-11T12:43:16.374Z,99257.09
2022-10-11T12:45:47.805Z,99268.72
2022-10-11T12:48:36.023Z,99251.81
2022-10-11T12:51:21.532Z,99254.03
2022-10-11T12:54:25.453Z,99249.34
2022-10-11T12:56:58.523Z,99237.97
2022-10-11T12:59:24.983Z,99243.81
2022-10-11T13:01:52.042Z,99235.72
2022-10-11T13:04:19.247Z,99241.56
2022-10-11T13:06:53.749Z,99246.59
2022-10-11T13:09:25.249Z,99243.34
2022-10-11T13:11:56.676Z,99234.31
2022-10-11T13:14:23.999Z,99244.16
2022-10-11T13:16:55.584Z,99243.84
2022-10-11T13:19:22.103Z,99239.44
2022-10-11T13:21:50.227Z,99238.34
2022-10-11T13:24:17.178Z,99231.41
2022-10-11T13:26:44.145Z,99228.16
2022-10-11T13:29:12.622Z,99240.78
2022-10-11T13:31:40.161Z,99239.91
2022-10-11T13:34:06.490Z,99234.47
2022-10-11T13:36:32.912Z,99233.66
2022-10-11T13:38:59.874Z,99234.09
2022-10-11T13:41:29.330Z,99235.91
2022-10-11T13:43:56.184Z,99236.19
2022-10-11T13:46:23.691Z,99236.00
2022-10-11T13:49:00.277Z,99231.16
2022-10-11T13:51:26.648Z,99226.91
2022-10-11T13:53:56.846Z,99221.94
2022-10-11T13:56:23.509Z,99225.09
2022-10-11T13:58:49.921Z,99231.16
2022-10-11T14:01:23.564Z,99236.81
2022-10-11T14:03:54.137Z,99228.13
2022-10-11T14:06:20.547Z,99236.09
2022-10-11T14:08:51.166Z,99229.97
2022-10-11T14:11:20.975Z,99232.66
2022-10-11T14:13:47.763Z,99221.91
2022-10-11T14:16:28.088Z,99235.56
2022-10-11T14:18:57.685Z,99230.41
2022-10-11T14:21:43.295Z,99230.13
2022-10-11T14:24:12.943Z,99235.41
2022-10-11T14:26:40.077Z,99227.66
2022-10-11T14:29:26.631Z,99220.03
2022-10-11T14:31:56.340Z,99221.31
2022-10-11T14:34:23.534Z,99212.59
2022-10-11T14:36:50.584Z,99221.38
2022-10-11T14:39:17.856Z,99221.13
2022-10-11T14:41:44.250Z,99223.09
2022-10-11T14:44:10.685Z,99224.22
2022-10-11T14:46:38.665Z,99222.03
2022-10-11T14:49:12.461Z,99212.28
2022-10-11T14:51:39.138Z,99211.69
2022-10-11T14:54:05.753Z,99216.38
2022-10-11T14:56:32.334Z,99215.22
2022-10-11T14:58:58.822Z,99215.28
2022-10-11T15:01:25.269Z,99220.16
2022-10-11T15:03:51.683Z,99208.09
2022-10-11T15:06:19.141Z,99209.75
2022-10-11T15:08:45.970Z,99215.47
2022-10-11T15:11:13.198Z,99205.50
2022-10-11T15:13:39.797Z,99202.91
2022-10-11T15:16:06.866Z,99209.09
2022-10-11T15:18:33.625Z,99197.84
2022-10-11T15:21:00.650Z,99197.34
2022-10-11T15:23:27.129Z,99201.59
2022-10-11T15:25:53.593Z,99199.97
2022-10-11T15:28:23.812Z,99196.56
2022-10-11T15:30:50.592Z,99199.81
2022-10-11T15:33:17.022Z,99200.63
2022-10-11T15:35:43.470Z,99204.38
2022-10-11T15:38:13.557Z,99203.72
2022-10-11T15:40:40.005Z,99204.06
2022-10-11T15:43:06.434Z,99200.78
2022-10-11T15:45:32.870Z,99198.50
2022-10-11T15:47:59.707Z,99204.22
2022-10-11T15:50:41.487Z,99200.47
2022-10-11T15:53:08.767Z,99202.06
2022-10-11T15:55:35.717Z,99200.75
2022-10-11T15:58:02.403Z,99196.84
2022-10-11T16:00:29.032Z,99196.03
2022-10-11T16:02:55.558Z,99195.03
2022-10-11T16:05:22.268Z,99205.94
2022-10-11T16:07:48.710Z,99204.31
2022-10-11T16:10:15.168Z,99205.94
2022-10-11T16:12:41.598Z,99201.06
2022-10-11T16:15:08.116Z,99210.31
2022-10-11T16:17:34.526Z,99203.16
2022-10-11T16:20:01.026Z,99210.78
2022-10-11T16:22:27.785Z,99210.47
2022-10-11T16:24:54.202Z,99210.50
2022-10-11T16:27:20.717Z,99216.81
2022-10-11T16:29:47.195Z,99209.59
2022-10-11T16:32:13.691Z,99203.22
2022-10-11T16:34:40.117Z,99213.81
2022-10-11T16:37:06.547Z,99216.75
2022-10-11T16:39:33.296Z,99220.03
2022-10-11T16:41:59.784Z,99211.53
2022-10-11T16:44:27.953Z,99207.63
2022-10-11T16:46:55.150Z,99215.94
2022-10-11T16:49:25.294Z,99214.97
2022-10-11T16:51:52.037Z,99221.44
2022-10-11T16:54:20.410Z,99221.50
2022-10-11T16:56:47.654Z,99219.44
2022-10-11T16:59:14.059Z,99224.47
2022-10-11T17:01:40.520Z,99214.47
2022-10-11T17:04:06.937Z,99221.47
2022-10-11T17:06:33.321Z,99222.09
2022-10-11T17:08:59.738Z,99222.25
2022-10-11T17:11:26.162Z,99219.13
2022-10-11T17:13:53.518Z,99218.88
2022-10-11T17:16:20.579Z,99217.06
2022-10-11T17:18:47.090Z,99223.59
2022-10-11T17:21:14.129Z,99219.38
2022-10-11T17:23:40.659Z,99213.81
2022-10-11T17:26:11.257Z,99210.72
2022-10-11T17:28:38.237Z,99212.38
2022-10-11T17:31:05.046Z,99210.47
2022-10-11T17:33:32.026Z,99214.75
2022-10-11T17:35:58.880Z,99207.78
2022-10-11T17:38:28.405Z,99206.97
2022-10-11T17:41:01.338Z,99215.25
2022-10-11T17:43:30.737Z,99213.00
2022-10-11T17:46:00.939Z,99205.50
2022-10-11T17:48:27.327Z,99207.66
2022-10-11T17:50:53.907Z,99210.47
2022-10-11T17:53:20.469Z,99211.09
2022-10-11T17:55:47.030Z,99201.94
2022-10-11T17:58:13.533Z,99211.03
2022-10-11T18:00:40.010Z,99211.16
2022-10-11T18:03:06.538Z,99206.97
2022-10-11T18:05:32.933Z,99206.56
2022-10-11T18:08:00.001Z,99209.09
2022-10-11T18:10:27.255Z,99208.31
2022-10-11T18:12:54.022Z,99203.81
2022-10-11T18:15:20.471Z,99207.03
2022-10-11T18:17:47.927Z,99201.63
2022-10-11T18:20:14.543Z,99206.13
2022-10-11T18:22:41.065Z,99210.84
2022-10-11T18:25:07.862Z,99207.59
2022-10-11T18:27:34.397Z,99209.22
2022-10-11T18:30:00.803Z,99204.16
2022-10-11T18:32:27.159Z,99205.31
2022-10-11T18:34:54.772Z,99205.91
2022-10-11T18:37:21.251Z,99197.91
2022-10-11T18:39:47.896Z,99193.22
2022-10-11T18:42:14.454Z,99195.91
2022-10-11T18:44:40.868Z,99195.09
2022-10-11T18:47:07.270Z,99195.59
2022-10-11T18:49:33.636Z,99182.06
2022-10-11T18:52:00.007Z,99186.16
2022-10-11T18:54:26.523Z,99186.56
2022-10-11T18:56:53.101Z,99186.72
2022-10-11T18:59:20.357Z,99187.25
2022-10-11T19:01:48.045Z,99181.72
2022-10-11T19:04:15.955Z,99180.44
2022-10-11T19:06:43.153Z,99177.69
2022-10-11T19:09:10.506Z,99179.31
2022-10-11T19:11:37.105Z,99183.91
2022-10-11T19:14:08.377Z,99179.81
2022-10-11T19:16:35.403Z,99184.53
2022-10-11T19:19:01.832Z,99177.13
2022-10-11T19:21:28.212Z,99182.69
2022-10-11T19:23:54.857Z,99178.94
2022-10-11T19:26:22.405Z,99186.16
2022-10-11T19:28:48.976Z,99182.69
2022-10-11T19:31:16.884Z,99172.28
2022-10-11T19:33:44.408Z,99178.28
2022-10-11T19:36:11.201Z,99174.47
2022-10-11T19:38:37.700Z,99177.06
2022-10-11T19:41:04.638Z,99176.31
2022-10-11T19:43:31.364Z,99180.06
2022-10-11T19:46:03.740Z,99172.78
2022-10-11T19:48:30.221Z,99175.84
2022-10-11T19:51:03.965Z,99168.19
2022-10-11T19:53:30.485Z,99178.31
2022-10-11T19:55:59.579Z,99169.88
2022-10-11T19:58:26.065Z,99172.41
2022-10-11T20:00:59.590Z,99178.56
2022-10-11T20:03:26.080Z,99175.28
2022-10-11T20:05:52.430Z,99179.94
2022-10-11T20:08:18.887Z,99169.88
2022-10-11T20:10:45.251Z,99177.38
2022-10-11T20:13:12.054Z,99169.69
2022-10-11T20:15:38.604Z,99172.72
2022-10-11T20:18:05.179Z,99172.53
2022-10-11T20:20:32.384Z,99166.44
2022-10-11T20:22:58.842Z,99170.00
2022-10-11T20:25:25.245Z,99169.06
2022-10-11T20:27:51.669Z,99165.25
2022-10-11T20:30:18.460Z,99166.22
2022-10-11T20:32:44.892Z,99167.63
2022-10-11T20:35:11.600Z,99166.75
2022-10-11T20:37:38.091Z,99167.75
2022-10-11T20:40:04.652Z,99166.53
2022-10-11T20:42:31.048Z,99166.84
2022-10-11T20:44:58.767Z,99164.78
2022-10-11T20:47:25.144Z,99167.75
2022-10-11T20:49:51.581Z,99170.81
2022-10-11T20:52:17.973Z,99168.22
2022-10-11T20:54:44.399Z,99168.97
2022-10-11T20:57:10.757Z,99168.97
2022-10-11T20:59:37.912Z,99169.50
2022-10-11T21:02:04.372Z,99162.41
2022-10-11T21:04:30.837Z,99162.75
2022-10-11T21:06:57.340Z,99162.84
2022-10-11T21:09:23.952Z,99161.38
2022-10-11T21:11:50.343Z,99161.06
2022-10-11T21:14:17.271Z,99157.09
2022-10-11T21:16:43.745Z,99162.50
2022-10-11T21:19:11.772Z,99163.22
2022-10-11T21:21:38.268Z,99154.63
2022-10-11T21:24:04.781Z,99157.50
2022-10-11T21:26:31.222Z,99163.78
2022-10-11T21:28:59.354Z,99157.13
2022-10-11T21:31:29.771Z,99160.00
2022-10-11T21:33:59.266Z,99164.31
2022-10-11T21:36:25.912Z,99166.03
2022-10-11T21:38:52.640Z,99168.78
2022-10-11T21:41:19.938Z,99156.34
2022-10-11T21:43:47.141Z,99163.88
2022-10-11T21:46:17.655Z,99164.38
2022-10-11T21:48:44.159Z,99163.97
2022-10-11T21:53:40.933Z,99161.22
2022-10-11T21:56:07.328Z,99166.94
2022-10-11T21:58:33.698Z,99164.91
2022-10-11T22:01:00.164Z,99164.78
2022-10-11T22:03:26.587Z,99166.94
2022-10-11T22:05:52.956Z,99168.97
2022-10-11T22:08:19.807Z,99164.78
2022-10-11T22:10:52.643Z,99167.25
2022-10-11T22:13:19.178Z,99152.16
2022-10-11T22:15:45.752Z,99151.63
2022-10-11T22:18:12.215Z,99144.13
2022-10-11T22:20:38.652Z,99149.03
2022-10-11T22:23:05.068Z,99151.91
2022-10-11T22:25:34.128Z,99144.91
2022-10-11T22:28:00.469Z,99144.53
2022-10-11T22:30:26.925Z,99147.75
2022-10-11T22:32:53.343Z,99147.31
2022-10-11T22:35:19.759Z,99140.56
2022-10-11T22:37:46.163Z,99145.78
2022-10-11T22:40:12.592Z,99146.38
2022-10-11T22:42:38.979Z,99147.75
2022-10-11T22:45:05.579Z,99135.06
2022-10-11T22:47:32.019Z,99144.78
2022-10-11T22:49:58.637Z,99142.00
2022-10-11T22:52:25.174Z,99147.00
2022-10-11T22:54:51.954Z,99148.13
2022-10-11T22:57:18.696Z,99143.47
2022-10-11T22:59:45.076Z,99142.84
2022-10-11T23:02:11.449Z,99143.56
2022-10-11T23:04:37.914Z,99145.00
2022-10-11T23:07:05.232Z,99140.19
2022-10-11T23:09:31.861Z,99142.63
2022-10-11T23:11:58.793Z,99141.31
2022-10-11T23:14:25.170Z,99143.34
2022-10-11T23:16:52.188Z,99152.13
2022-10-11T23:19:18.690Z,99144.00
2022-10-11T23:21:45.112Z,99152.75
2022-10-11T23:24:11.482Z,99152.03
2022-10-11T23:26:37.894Z,99156.09
2022-10-11T23:29:04.318Z,99154.91
2022-10-11T23:31:30.901Z,99149.59
2022-10-11T23:33:57.860Z,99151.13
2022-10-11T23:36:24.938Z,99149.59
2022-10-11T23:38:58.291Z,99158.19
2022-10-11T23:41:25.554Z,99157.16
2022-10-11T23:43:52.127Z,99153.06
2022-10-11T23:46:18.564Z,99165.13
2022-10-11T23:48:45.066Z,99159.09
2022-10-11T23:51:11.629Z,99150.03
2022-10-11T23:53:38.252Z,99164.72
2022-10-11T23:56:06.665Z,99158.38
2022-10-11T23:58:33.237Z,99162.47
